Time;durP1;ratioP1;P1;durP2;ratioP2;P2;SDS_P1;SDS_P2;PMS_P1;PMS_P2;Temp;Humidity;BMP_temperature;BMP_pressure;BME280_temperature;BME280_humidity;BME280_pressure;Samples;Min_cycle;Max_cycle;Signal;HPM_P1;HPM_P2
2022/01/31 00:02:16;;;;;;;21.67;7.30;;;;;;;3.72;80.42;101521.84;5048155;28;20112;-72
2022/01/31 00:04:44;;;;;;;29.40;7.47;;;;;;;3.75;80.46;101498.31;5047442;28;20048;-72
2022/01/31 00:07:10;;;;;;;24.45;8.18;;;;;;;3.76;80.59;101479.19;5047740;28;20024;-72
2022/01/31 00:09:37;;;;;;;22.67;7.80;;;;;;;3.76;80.93;101455.78;5049415;28;20432;-72
2022/01/31 00:12:07;;;;;;;26.17;7.55;;;;;;;3.77;80.72;101441.88;5046394;28;20020;-72
2022/01/31 00:14:43;;;;;;;28.08;7.85;;;;;;;3.79;80.90;101460.03;5045896;28;20108;-72
2022/01/31 00:17:10;;;;;;;21.80;6.85;;;;;;;3.77;80.62;101441.88;5048988;28;20033;-72
2022/01/31 00:19:36;;;;;;;26.15;7.63;;;;;;;3.82;81.16;101440.84;5048907;28;20543;-72
2022/01/31 00:22:03;;;;;;;22.33;7.13;;;;;;;3.83;81.22;101425.16;5046745;28;20028;-72
2022/01/31 00:24:28;;;;;;;23.98;7.00;;;;;;;3.84;81.13;101429.47;5047357;28;20028;-72
2022/01/31 00:26:54;;;;;;;26.02;7.38;;;;;;;3.86;80.99;101406.00;5047212;28;20041;-72
2022/01/31 00:29:19;;;;;;;28.10;7.43;;;;;;;3.89;81.03;101392.84;5046209;28;20017;-72
2022/01/31 00:31:45;;;;;;;25.58;7.18;;;;;;;3.88;81.47;101396.38;5047757;28;20093;-72
2022/01/31 00:34:10;;;;;;;25.27;7.13;;;;;;;3.89;81.62;101372.88;5046026;28;20107;-72
2022/01/31 00:36:35;;;;;;;24.02;7.28;;;;;;;3.92;81.95;101366.72;5046791;28;20493;-72
2022/01/31 00:39:02;;;;;;;24.90;7.68;;;;;;;3.93;82.33;101360.59;5046300;28;20023;-72
2022/01/31 00:41:28;;;;;;;22.00;6.90;;;;;;;3.93;83.05;101352.78;5046891;28;20052;-72
2022/01/31 00:44:15;;;;;;;25.42;7.30;;;;;;;3.92;83.28;101336.31;5046273;28;20052;-72
2022/01/31 00:46:45;;;;;;;23.88;7.50;;;;;;;3.92;84.87;101317.25;5042940;28;20063;-72
2022/01/31 00:49:22;;;;;;;24.70;7.32;;;;;;;3.90;85.57;101306.91;5048238;28;20021;-72
2022/01/31 00:51:48;;;;;;;24.83;6.97;;;;;;;3.90;86.13;101303.44;5047291;28;20036;-72
2022/01/31 00:54:13;;;;;;;29.38;7.55;;;;;;;3.88;87.00;101297.47;5044820;28;20086;-72
2022/01/31 00:56:39;;;;;;;30.88;7.60;;;;;;;3.85;87.43;101282.81;5047595;28;20385;-72
2022/01/31 00:59:04;;;;;;;25.98;7.80;;;;;;;3.84;88.20;101278.50;5047549;28;20120;-72
2022/01/31 01:01:30;;;;;;;27.13;7.63;;;;;;;3.83;88.47;101260.34;5045588;28;20031;-72
2022/01/31 01:03:55;;;;;;;27.42;7.75;;;;;;;3.82;89.37;101237.84;5043864;28;20024;-73
2022/01/31 01:06:21;;;;;;;21.33;7.72;;;;;;;3.82;89.77;101237.84;5046486;28;20071;-72
2022/01/31 01:08:47;;;;;;;25.50;7.45;;;;;;;3.77;90.39;101233.66;5045415;28;20029;-72
2022/01/31 01:11:12;;;;;;;24.27;7.30;;;;;;;3.77;90.47;101241.47;5050308;28;20059;-72
2022/01/31 01:13:37;;;;;;;28.58;7.82;;;;;;;3.76;90.77;101211.16;5046399;28;20140;-72
2022/01/31 01:16:03;;;;;;;25.98;7.65;;;;;;;3.78;91.85;101213.69;5045957;28;20029;-73
2022/01/31 01:18:28;;;;;;;30.23;8.07;;;;;;;3.77;91.79;101199.84;5055858;28;20037;-74
2022/01/31 01:20:54;;;;;;;26.92;7.85;;;;;;;3.78;92.12;101185.91;5045584;28;20033;-73
2022/01/31 01:23:19;;;;;;;30.02;7.47;;;;;;;3.82;92.43;101180.59;5046120;28;20392;-73
2022/01/31 01:25:46;;;;;;;23.92;8.02;;;;;;;3.81;93.24;101160.69;5048578;28;20447;-73
2022/01/31 01:28:11;;;;;;;30.60;8.52;;;;;;;3.84;92.95;101166.59;5047078;28;20032;-73
2022/01/31 01:30:37;;;;;;;28.00;7.75;;;;;;;3.86;93.37;101150.91;5047563;28;20033;-73
2022/01/31 01:33:10;;;;;;;24.80;8.07;;;;;;;3.86;93.95;101150.91;5045771;28;20099;-73
2022/01/31 01:35:38;;;;;;;29.42;8.98;;;;;;;3.88;93.82;101139.53;5049146;28;20206;-73
2022/01/31 01:38:06;;;;;;;31.80;8.45;;;;;;;3.86;94.62;101130.09;5050965;28;20132;-73
2022/01/31 01:40:39;;;;;;;33.67;9.00;;;;;;;3.88;94.91;101126.50;5049322;28;20028;-73
2022/01/31 01:43:05;;;;;;;28.48;8.55;;;;;;;3.88;94.77;101120.47;5046706;28;20413;-73
2022/01/31 01:45:31;;;;;;;30.75;8.63;;;;;;;3.91;95.44;101107.31;5050456;28;20431;-72
2022/01/31 01:47:56;;;;;;;25.90;8.02;;;;;;;3.91;95.12;101099.50;5051226;28;20043;-73
2022/01/31 01:50:22;;;;;;;27.15;7.90;;;;;;;3.95;95.67;101093.25;5047944;28;20381;-73
2022/01/31 01:52:47;;;;;;;26.55;8.13;;;;;;;3.93;95.52;101072.50;5050825;28;20025;-73
2022/01/31 01:55:14;;;;;;;24.98;8.27;;;;;;;3.94;96.24;101062.94;5051609;28;20036;-73
2022/01/31 01:57:40;;;;;;;31.77;7.55;;;;;;;3.94;96.11;101052.53;5050342;28;20037;-73
2022/01/31 02:00:08;;;;;;;23.08;7.85;;;;;;;3.94;96.94;101042.13;5051300;28;20539;-78
2022/01/31 02:02:34;;;;;;;22.60;8.05;;;;;;;3.92;96.45;101023.97;5050270;28;20033;-78
2022/01/31 02:04:59;;;;;;;20.52;7.10;;;;;;;3.96;96.53;101024.66;5050201;28;20013;-73
2022/01/31 02:07:24;;;;;;;20.13;7.60;;;;;;;3.98;96.41;101020.25;5047063;28;20037;-73
2022/01/31 02:09:54;;;;;;;18.95;7.30;;;;;;;4.00;96.96;101015.81;5049576;28;20025;-73
2022/01/31 02:12:20;;;;;;;20.08;6.95;;;;;;;4.01;97.42;100999.31;5050041;28;20025;-73
2022/01/31 02:14:48;;;;;;;21.33;6.60;;;;;;;4.01;97.52;101001.91;5049475;28;20487;-73
2022/01/31 02:17:14;;;;;;;19.92;6.75;;;;;;;4.04;97.12;101004.38;5052871;28;20132;-72
2022/01/31 02:19:39;;;;;;;19.60;6.85;;;;;;;4.04;97.44;100988.75;5049820;28;20107;-72
2022/01/31 02:22:05;;;;;;;21.02;7.40;;;;;;;4.08;97.91;100998.13;5048831;28;20035;-74
2022/01/31 02:24:31;;;;;;;21.70;7.45;;;;;;;4.08;98.16;100974.69;5051089;28;20024;-74
2022/01/31 02:26:58;;;;;;;17.80;7.13;;;;;;;4.11;97.92;100976.31;5049001;28;20033;-74
2022/01/31 02:29:23;;;;;;;18.52;6.93;;;;;;;4.12;98.30;100984.03;5050331;28;20032;-73
2022/01/31 02:31:49;;;;;;;19.45;7.35;;;;;;;4.14;98.31;100984.81;5049232;28;20061;-72
2022/01/31 02:34:18;;;;;;;18.38;7.15;;;;;;;4.17;98.76;100976.88;5051029;28;20021;-72
2022/01/31 02:36:44;;;;;;;17.02;7.22;;;;;;;4.18;98.93;100975.94;5050137;28;20033;-72
2022/01/31 02:39:10;;;;;;;19.30;7.47;;;;;;;4.22;98.71;100989.69;5047936;28;20504;-72
2022/01/31 02:41:42;;;;;;;19.63;7.68;;;;;;;4.24;99.16;100967.84;5049590;28;20460;-73
2022/01/31 02:44:14;;;;;;;;;;;;;;;4.28;97.60;100953.78;5047713;28;20021;-72
2022/01/31 02:46:47;;;;;;;16.42;8.30;;;;;;;4.28;98.88;100930.34;5048784;28;19920;-71
2022/01/31 02:49:15;;;;;;;14.65;7.28;;;;;;;4.31;99.55;100945.81;5049450;28;20029;-75
2022/01/31 02:51:45;;;;;;;20.42;8.15;;;;;;;4.35;99.84;100942.16;5048584;28;20028;-74
2022/01/31 02:54:11;;;;;;;17.27;7.93;;;;;;;4.37;100.00;100927.28;5045668;28;20033;-74
2022/01/31 02:56:37;;;;;;;14.50;8.50;;;;;;;4.43;99.86;100931.41;5049151;28;20036;-74
2022/01/31 02:59:03;;;;;;;16.30;7.47;;;;;;;4.47;100.00;100922.53;5049280;28;20420;-74
2022/01/31 03:01:28;;;;;;;13.05;7.80;;;;;;;4.54;100.00;100933.50;5047349;28;20040;-75
2022/01/31 03:03:53;;;;;;;16.40;7.88;;;;;;;4.56;100.00;100916.88;5055683;28;20050;-73
2022/01/31 03:06:19;;;;;;;12.13;7.70;;;;;;;4.60;100.00;100917.56;5045090;28;20017;-73
2022/01/31 03:08:44;;;;;;;18.83;8.93;;;;;;;4.64;100.00;100924.31;5049107;28;20209;-72
2022/01/31 03:11:09;;;;;;;17.92;8.05;;;;;;;4.66;100.00;100932.91;5047800;28;20036;-74
2022/01/31 03:13:35;;;;;;;19.63;8.25;;;;;;;4.70;100.00;100934.44;5049805;28;20029;-72
2022/01/31 03:16:00;;;;;;;18.77;7.50;;;;;;;4.71;100.00;100926.53;5046833;28;20385;-75
2022/01/31 03:18:27;;;;;;;20.27;6.93;;;;;;;4.76;100.00;100926.31;5054502;28;20021;-73
2022/01/31 03:20:52;;;;;;;23.10;7.32;;;;;;;4.79;100.00;100920.94;5049070;28;20056;-73
2022/01/31 03:23:19;;;;;;;19.88;6.90;;;;;;;4.81;100.00;100913.94;5047823;28;20055;-73
2022/01/31 03:25:44;;;;;;;21.27;6.78;;;;;;;4.85;100.00;100897.22;5032097;28;20032;-75
2022/01/31 03:28:09;;;;;;;23.05;6.20;;;;;;;4.87;100.00;100889.31;5047773;28;20036;-75
2022/01/31 03:30:35;;;;;;;23.63;6.03;;;;;;;4.91;100.00;100896.91;5049083;28;20481;-73
2022/01/31 03:33:00;;;;;;;29.00;6.20;;;;;;;4.95;100.00;100901.03;5048956;28;20137;-74
2022/01/31 03:35:27;;;;;;;24.35;5.40;;;;;;;4.97;100.00;100895.75;5047954;28;20498;-74
2022/01/31 03:37:52;;;;;;;23.58;5.53;;;;;;;4.96;100.00;100881.03;5049566;28;20024;-78
2022/01/31 03:40:19;;;;;;;16.83;4.93;;;;;;;4.97;100.00;100886.16;5048529;28;20033;-73
2022/01/31 03:42:48;;;;;;;21.35;5.40;;;;;;;5.00;99.76;100886.00;5049124;28;20025;-73
2022/01/31 03:45:13;;;;;;;21.63;5.28;;;;;;;5.03;99.76;100882.41;5048016;28;20053;-74
2022/01/31 03:47:44;;;;;;;21.67;5.10;;;;;;;5.05;99.73;100870.13;5049331;28;20052;-78
2022/01/31 03:50:12;;;;;;;23.85;5.20;;;;;;;5.03;99.27;100859.78;5048710;28;20025;-73
2022/01/31 03:52:37;;;;;;;25.13;4.80;;;;;;;5.08;99.29;100861.31;5050354;28;20028;-73
2022/01/31 03:55:03;;;;;;;18.35;4.43;;;;;;;5.11;99.00;100867.22;5048632;28;20445;-74
2022/01/31 03:57:29;;;;;;;19.58;4.13;;;;;;;5.12;98.94;100863.69;5047389;28;20033;-73
2022/01/31 03:59:54;;;;;;;23.90;4.20;;;;;;;5.12;98.59;100866.28;5047944;28;20070;-73
2022/01/31 04:02:20;;;;;;;25.02;4.50;;;;;;;5.16;98.16;100877.41;5047165;28;20469;-73
2022/01/31 04:04:48;;;;;;;24.75;3.95;;;;;;;5.17;97.56;100871.25;5046730;28;20025;-74
2022/01/31 04:07:13;;;;;;;23.33;4.13;;;;;;;5.22;97.02;100885.78;5047724;28;20021;-74
2022/01/31 04:09:39;;;;;;;19.77;3.90;;;;;;;5.27;96.61;100880.34;5048133;28;20438;-74
2022/01/31 04:12:04;;;;;;;19.80;3.55;;;;;;;5.28;96.12;100889.84;5046341;28;20025;-73
2022/01/31 04:14:30;;;;;;;21.38;3.67;;;;;;;5.30;96.14;100880.16;5048710;28;20029;-74
2022/01/31 04:16:56;;;;;;;18.38;3.17;;;;;;;5.30;95.24;100867.97;5046954;28;20489;-73
2022/01/31 04:19:23;;;;;;;17.58;3.53;;;;;;;5.31;94.96;100868.81;5045997;28;20989;-73
2022/01/31 04:21:48;;;;;;;21.20;3.20;;;;;;;5.31;94.29;100861.00;5046641;28;20032;-73
2022/01/31 04:24:19;;;;;;;19.52;3.63;;;;;;;5.33;94.07;100861.75;5048832;28;20021;-73
2022/01/31 04:26:55;;;;;;;21.88;3.28;;;;;;;5.34;93.71;100850.38;5044272;28;20047;-76
2022/01/31 04:29:20;;;;;;;25.15;3.47;;;;;;;5.33;93.66;100854.75;5048204;28;20498;-73
2022/01/31 04:31:51;;;;;;;21.05;3.00;;;;;;;5.31;93.18;100861.81;5047225;28;20082;-73
2022/01/31 04:34:18;;;;;;;18.55;3.35;;;;;;;5.32;93.13;100863.50;5046151;28;20499;-73
2022/01/31 04:36:43;;;;;;;19.40;2.80;;;;;;;5.31;92.88;100863.59;5047029;28;20040;-74
2022/01/31 04:39:15;;;;;;;17.60;3.15;;;;;;;5.33;92.24;100853.91;5047463;28;20044;-73
2022/01/31 04:41:40;;;;;;;22.35;3.80;;;;;;;5.32;91.18;100850.47;5048521;28;20429;-73
2022/01/31 04:44:07;;;;;;;18.25;3.10;;;;;;;5.32;90.90;100854.84;5048607;28;20104;-74
2022/01/31 04:46:33;;;;;;;23.42;3.10;;;;;;;5.32;90.08;100850.47;5047831;28;20031;-73
2022/01/31 04:48:58;;;;;;;25.48;3.28;;;;;;;5.32;89.86;100849.63;5046861;28;20024;-73
2022/01/31 04:51:23;;;;;;;27.33;3.47;;;;;;;5.31;89.74;100838.34;5047061;28;20532;-73
2022/01/31 04:53:49;;;;;;;20.58;3.15;;;;;;;5.32;88.85;100852.25;5045863;28;20032;-74
2022/01/31 04:56:14;;;;;;;21.90;3.35;;;;;;;5.32;88.71;100858.28;5047112;28;20029;-73
2022/01/31 04:58:40;;;;;;;22.70;3.78;;;;;;;5.32;88.90;100853.06;5045627;28;20424;-73
2022/01/31 05:01:05;;;;;;;16.88;3.40;;;;;;;5.30;89.00;100851.47;5044285;28;20039;-73
2022/01/31 05:03:31;;;;;;;21.38;3.17;;;;;;;5.28;88.16;100841.13;5047113;28;20032;-73
2022/01/31 05:05:57;;;;;;;16.20;3.17;;;;;;;5.28;87.79;100851.56;5039719;28;20020;-73
2022/01/31 05:08:26;;;;;;;15.70;3.58;;;;;;;5.28;86.54;100848.94;5045494;28;20100;-73
2022/01/31 05:10:52;;;;;;;21.65;2.97;;;;;;;5.29;86.44;100839.34;5046823;28;20037;-73
2022/01/31 05:13:17;;;;;;;22.27;3.22;;;;;;;5.31;87.03;100842.72;5048441;28;20040;-73
2022/01/31 05:15:44;;;;;;;19.27;2.80;;;;;;;5.30;87.37;100836.66;5039557;28;20029;-73
2022/01/31 05:18:10;;;;;;;20.10;3.33;;;;;;;5.30;85.91;100836.66;5049270;28;20033;-73
2022/01/31 05:20:35;;;;;;;22.92;3.83;;;;;;;5.31;86.23;100832.28;5046803;28;20063;-73
2022/01/31 05:23:01;;;;;;;16.30;2.78;;;;;;;5.32;85.00;100813.94;5044312;28;20067;-73
2022/01/31 05:25:27;;;;;;;19.38;3.42;;;;;;;5.32;84.84;100813.09;5047807;28;20029;-73
2022/01/31 05:27:52;;;;;;;13.93;3.00;;;;;;;5.32;85.47;100821.78;5047219;28;20059;-73
2022/01/31 05:30:18;;;;;;;16.40;2.55;;;;;;;5.32;85.34;100815.72;5047103;28;20048;-73
2022/01/31 05:32:44;;;;;;;20.35;2.92;;;;;;;5.30;85.29;100804.53;5047751;28;20052;-73
2022/01/31 05:35:09;;;;;;;20.67;3.28;;;;;;;5.32;84.19;100803.50;5045897;28;20033;-73
2022/01/31 05:37:35;;;;;;;20.55;2.92;;;;;;;5.31;85.35;100796.63;5042875;28;20447;-73
2022/01/31 05:40:02;;;;;;;26.20;3.42;;;;;;;5.32;85.61;100802.66;5041849;28;20021;-73
2022/01/31 05:42:28;;;;;;;19.20;2.75;;;;;;;5.33;85.41;100796.53;5046012;28;20393;-73
2022/01/31 05:44:53;;;;;;;22.35;3.22;;;;;;;5.31;85.74;100778.34;5047715;28;20025;-73
2022/01/31 05:47:18;;;;;;;16.17;2.83;;;;;;;5.32;86.10;100787.03;5048177;28;20154;-73
2022/01/31 05:49:44;;;;;;;22.65;3.17;;;;;;;5.31;85.90;100787.94;5046059;28;20037;-73
2022/01/31 05:52:10;;;;;;;22.45;2.97;;;;;;;5.29;85.54;100780.19;5046455;28;20031;-73
2022/01/31 05:54:38;;;;;;;20.00;3.60;;;;;;;5.27;87.19;100762.94;5042806;28;20285;-73
2022/01/31 05:57:05;;;;;;;20.95;3.47;;;;;;;5.25;87.13;100775.22;5045764;28;20028;-73
2022/01/31 05:59:33;;;;;;;18.40;3.22;;;;;;;5.21;86.91;100786.75;5047183;28;20094;-73
2022/01/31 06:02:01;;;;;;;22.75;3.33;;;;;;;5.18;87.41;100794.72;5046650;28;20731;-72
2022/01/31 06:04:32;;;;;;;14.60;2.72;;;;;;;5.15;88.94;100805.31;5046984;28;20075;-72
2022/01/31 06:06:58;;;;;;;17.38;3.03;;;;;;;5.09;89.19;100789.97;5045960;28;20167;-75
2022/01/31 06:09:26;;;;;;;19.52;3.15;;;;;;;5.04;89.67;100783.25;5048972;28;20079;-72
2022/01/31 06:11:52;;;;;;;20.50;2.90;;;;;;;5.01;89.56;100801.66;5040785;28;20029;-72
2022/01/31 06:14:17;;;;;;;15.18;3.00;;;;;;;4.97;90.51;100818.38;5048842;28;20027;-72
2022/01/31 06:16:43;;;;;;;16.50;3.22;;;;;;;4.95;89.82;100822.84;5052303;28;20043;-72
2022/01/31 06:19:09;;;;;;;18.00;3.15;;;;;;;4.91;90.54;100816.09;5046266;28;20020;-72
2022/01/31 06:21:34;;;;;;;19.92;3.20;;;;;;;4.92;91.32;100820.38;5050776;28;20085;-72
2022/01/31 06:24:00;;;;;;;17.38;3.42;;;;;;;4.90;91.53;100806.59;5051692;28;20029;-71
2022/01/31 06:26:26;;;;;;;18.70;3.15;;;;;;;4.88;90.95;100831.88;5051600;28;20021;-75
2022/01/31 06:28:51;;;;;;;17.42;3.00;;;;;;;4.86;90.89;100820.69;5044233;28;20028;-74
2022/01/31 06:31:17;;;;;;;21.58;2.88;;;;;;;4.87;90.98;100826.75;5050905;28;20025;-74
2022/01/31 06:33:42;;;;;;;16.58;2.80;;;;;;;4.83;89.70;100820.84;5051614;28;20082;-74
2022/01/31 06:36:08;;;;;;;14.82;2.70;;;;;;;4.83;89.36;100815.66;5051745;28;20052;-73
2022/01/31 06:38:35;;;;;;;13.35;2.78;;;;;;;4.81;89.68;100817.50;5050990;28;20036;-73
2022/01/31 06:41:02;;;;;;;17.23;2.95;;;;;;;4.77;89.68;100784.66;5051017;28;20021;-73
2022/01/31 06:43:27;;;;;;;19.08;3.25;;;;;;;4.73;89.19;100809.19;5051560;28;20037;-73
2022/01/31 06:45:52;;;;;;;21.00;3.42;;;;;;;4.72;90.12;100802.28;5042981;28;20029;-73
2022/01/31 06:48:18;;;;;;;15.30;3.00;;;;;;;4.72;89.00;100813.56;5045282;28;20033;-73
2022/01/31 06:50:43;;;;;;;18.85;2.85;;;;;;;4.71;88.62;100826.66;5049623;28;20728;-73
2022/01/31 06:53:11;;;;;;;19.98;3.30;;;;;;;4.68;89.14;100822.44;5050003;28;20029;-73
2022/01/31 06:55:37;;;;;;;21.15;3.22;;;;;;;4.68;89.85;100811.19;5051169;28;20055;-72
2022/01/31 06:58:02;;;;;;;19.52;3.30;;;;;;;4.66;89.05;100808.66;5048381;28;20075;-72
2022/01/31 07:00:28;;;;;;;21.08;2.97;;;;;;;4.62;89.71;100832.34;5048313;28;20032;-73
2022/01/31 07:02:54;;;;;;;24.35;3.58;;;;;;;4.62;89.63;100820.16;5048466;28;20029;-73
2022/01/31 07:05:21;;;;;;;24.73;4.03;;;;;;;4.59;90.29;100822.06;5031512;28;20382;-73
2022/01/31 07:07:48;;;;;;;17.92;3.60;;;;;;;4.58;90.37;100815.19;5000039;28;20113;-72
2022/01/31 07:10:13;;;;;;;19.60;3.65;;;;;;;4.57;90.62;100818.69;5007845;28;20041;-73
2022/01/31 07:12:40;;;;;;;27.02;3.47;;;;;;;4.56;90.92;100819.63;5000088;28;20462;-73
2022/01/31 07:15:08;;;;;;;26.38;3.35;;;;;;;4.53;91.25;100823.22;5007306;28;20029;-73
2022/01/31 07:17:35;;;;;;;21.20;3.65;;;;;;;4.52;90.84;100815.47;5009432;28;20030;-73
2022/01/31 07:20:03;;;;;;;23.60;3.88;;;;;;;4.54;90.37;100811.03;5009695;28;20404;-73
2022/01/31 07:22:34;;;;;;;20.10;3.03;;;;;;;4.52;90.56;100800.69;5006970;28;20026;-74
2022/01/31 07:25:05;;;;;;;20.70;3.22;;;;;;;4.53;91.08;100802.38;5010307;28;20164;-72
2022/01/31 07:27:31;;;;;;;22.38;3.38;;;;;;;4.51;91.04;100790.34;5009698;28;20109;-73
2022/01/31 07:29:56;;;;;;;21.88;3.58;;;;;;;4.52;91.07;100784.22;5010138;28;20075;-73
2022/01/31 07:32:22;;;;;;;17.00;3.03;;;;;;;4.52;91.25;100792.88;5008378;28;20430;-73
2022/01/31 07:34:50;;;;;;;20.42;3.13;;;;;;;4.51;90.51;100774.72;5007450;28;20435;-73
2022/01/31 07:37:16;;;;;;;26.20;3.80;;;;;;;4.53;91.32;100806.75;5008564;28;20026;-73
2022/01/31 07:39:42;;;;;;;24.63;4.55;;;;;;;4.53;90.58;100811.97;5010107;28;20386;-73
2022/01/31 07:42:09;;;;;;;27.17;3.80;;;;;;;4.53;90.66;100817.16;5009534;28;20033;-73
2022/01/31 07:44:34;;;;;;;25.48;4.53;;;;;;;4.54;90.63;100822.31;5009843;28;20087;-72
2022/01/31 07:47:00;;;;;;;27.40;3.78;;;;;;;4.52;90.71;100829.34;5010048;28;20029;-72
2022/01/31 07:49:25;;;;;;;20.67;3.72;;;;;;;4.53;91.77;100830.19;5009565;28;20112;-72
2022/01/31 07:51:51;;;;;;;25.30;4.25;;;;;;;4.50;91.17;100828.59;5008501;28;20022;-72
2022/01/31 07:54:16;;;;;;;24.25;4.10;;;;;;;4.51;91.13;100819.84;5009637;28;20030;-73
2022/01/31 07:56:42;;;;;;;24.52;4.28;;;;;;;4.52;91.38;100836.31;5004222;28;20026;-72
2022/01/31 07:59:08;;;;;;;25.35;4.15;;;;;;;4.50;91.86;100840.78;5007145;28;20036;-72
2022/01/31 08:01:33;;;;;;;31.10;4.18;;;;;;;4.48;91.26;100829.59;5009699;28;20026;-72
2022/01/31 08:03:59;;;;;;;28.70;4.60;;;;;;;4.49;91.38;100826.06;5001566;28;20033;-72
2022/01/31 08:06:24;;;;;;;31.83;4.30;;;;;;;4.49;91.33;100828.66;5009713;28;20026;-71
2022/01/31 08:08:50;;;;;;;40.53;4.18;;;;;;;4.51;91.87;100811.19;5005695;28;20034;-69
2022/01/31 08:11:16;;;;;;;32.35;4.18;;;;;;;4.50;92.00;100830.34;5008349;28;20026;-71
2022/01/31 08:13:42;;;;;;;25.98;4.53;;;;;;;4.49;90.78;100824.28;5006771;28;20124;-72
2022/01/31 08:18:34;;;;;;;28.85;4.60;;;;;;;4.53;91.49;100825.81;5000591;28;118917;-72
2022/01/31 08:21:03;;;;;;;33.85;4.50;;;;;;;4.53;90.96;100832.81;5007325;28;20475;-72
2022/01/31 08:23:28;;;;;;;29.83;4.10;;;;;;;4.54;91.10;100834.50;5009022;28;20028;-74
2022/01/31 08:25:53;;;;;;;34.13;4.53;;;;;;;4.56;90.47;100822.22;5006366;28;20030;-71
2022/01/31 08:28:22;;;;;;;25.33;4.13;;;;;;;4.55;90.92;100836.16;5007292;28;20497;-71
2022/01/31 08:31:02;;;;;;;27.95;4.47;;;;;;;4.56;91.40;100840.47;5005922;28;20371;-72
2022/01/31 08:36:04;;;;;;;27.52;4.47;;;;;;;4.55;91.06;100847.44;5005930;28;20068;-72
2022/01/31 08:38:30;;;;;;;29.88;4.10;;;;;;;4.56;91.31;100837.84;5006623;28;20510;-72
2022/01/31 08:40:57;;;;;;;25.00;4.00;;;;;;;4.56;91.13;100853.50;5008969;28;20040;-72
2022/01/31 08:43:24;;;;;;;26.13;4.45;;;;;;;4.58;91.42;100846.44;5005427;28;20125;-72
2022/01/31 08:45:50;;;;;;;30.98;4.80;;;;;;;4.58;91.50;100849.88;5001249;28;20466;-71
2022/01/31 08:48:16;;;;;;;28.98;5.22;;;;;;;4.58;91.24;100851.66;5009675;28;20029;-72
2022/01/31 08:50:42;;;;;;;29.20;4.60;;;;;;;4.59;91.12;100853.34;5008086;28;20135;-72
2022/01/31 08:53:08;;;;;;;30.58;4.78;;;;;;;4.62;91.14;100847.97;5008843;28;20025;-75
2022/01/31 08:55:35;;;;;;;30.67;4.53;;;;;;;4.62;91.64;100843.59;5005354;28;20073;-74
2022/01/31 08:58:01;;;;;;;34.60;4.55;;;;;;;4.64;91.67;100852.19;4997192;28;20030;-72
2022/01/31 09:00:34;;;;;;;34.70;4.53;;;;;;;4.64;90.68;100856.56;5004497;28;20478;-72
2022/01/31 09:03:17;;;;;;;36.20;4.78;;;;;;;4.63;91.26;100855.72;5007146;28;20405;-74
2022/01/31 09:05:43;;;;;;;41.35;5.10;;;;;;;4.65;91.53;100877.31;5008704;28;20026;-72
2022/01/31 09:08:09;;;;;;;26.20;4.20;;;;;;;4.66;92.07;100886.00;5023015;28;20548;-72
2022/01/31 09:10:35;;;;;;;26.42;4.47;;;;;;;4.64;91.98;100878.25;5002499;28;20030;-72
2022/01/31 09:13:01;;;;;;;34.35;4.78;;;;;;;4.65;92.20;100894.72;5007958;28;20108;-72
2022/01/31 09:15:26;;;;;;;23.38;4.38;;;;;;;4.64;92.20;100893.03;5003714;28;20145;-72
2022/01/31 09:17:52;;;;;;;39.08;4.80;;;;;;;4.63;92.04;100880.94;5000267;28;20030;-72
2022/01/31 09:20:17;;;;;;;33.38;3.95;;;;;;;4.62;92.04;100887.91;4995009;28;27898;-73
2022/01/31 09:22:43;;;;;;;24.42;4.20;;;;;;;4.64;92.31;100882.63;5024111;28;20059;-72
2022/01/31 09:25:10;;;;;;;23.30;3.92;;;;;;;4.62;91.88;100887.06;5006221;28;20499;-72
2022/01/31 09:27:36;;;;;;;30.08;4.10;;;;;;;4.61;92.16;100861.91;5008282;28;20034;-72
2022/01/31 09:30:04;;;;;;;31.58;4.22;;;;;;;4.65;92.13;100873.88;5008217;28;20079;-72
2022/01/31 09:32:29;;;;;;;36.58;4.82;;;;;;;4.66;91.81;100880.78;5008793;28;20050;-72
2022/01/31 09:34:55;;;;;;;36.47;5.38;;;;;;;4.67;92.04;100887.69;5007406;28;20097;-72
2022/01/31 09:37:21;;;;;;;28.70;3.90;;;;;;;4.67;92.63;100888.53;5007307;28;20452;-72
2022/01/31 09:39:48;;;;;;;34.30;4.95;;;;;;;4.68;92.10;100891.97;5006994;28;20030;-73
2022/01/31 09:42:22;;;;;;;24.48;4.05;;;;;;;4.69;92.44;100896.25;5008308;28;20068;-73
2022/01/31 09:49:44;;;;;;;26.33;4.93;;;;;;;4.68;92.20;100915.41;5008403;28;20037;-72
2022/01/31 09:52:09;;;;;;;31.30;4.78;;;;;;;4.68;92.78;100925.84;5008254;28;20461;-72
2022/01/31 09:54:35;;;;;;;36.35;5.35;;;;;;;4.66;92.22;100927.69;5009716;28;20033;-73
2022/01/31 09:57:00;;;;;;;35.33;4.70;;;;;;;4.64;92.33;100932.13;5009713;28;20061;-73
2022/01/31 09:59:26;;;;;;;33.58;4.57;;;;;;;4.64;92.58;100932.13;4996970;28;20087;-77
2022/01/31 10:01:54;;;;;;;31.58;4.93;;;;;;;4.63;92.79;100933.88;4999383;28;20022;-77
2022/01/31 10:04:23;;;;;;;41.78;5.35;;;;;;;4.64;93.13;100945.16;4995264;28;20022;-72
2022/01/31 10:06:52;;;;;;;39.15;5.40;;;;;;;4.63;92.01;100943.47;4997420;28;20045;-72
2022/01/31 10:09:19;;;;;;;37.70;5.70;;;;;;;4.62;92.38;100968.69;5004090;28;20030;-72
2022/01/31 10:12:05;;;;;;;39.38;5.03;;;;;;;4.63;93.02;100948.69;4994875;28;20034;-72
2022/01/31 10:17:29;;;;;;;44.40;6.55;;;;;;;4.61;93.35;100960.94;4996787;28;20122;-72
2022/01/31 10:20:00;;;;;;;45.13;6.97;;;;;;;4.61;93.18;100955.72;4995314;28;20440;-73
2022/01/31 10:22:29;;;;;;;38.08;5.95;;;;;;;4.61;93.01;100973.97;4996359;28;20030;-73
2022/01/31 10:24:58;;;;;;;50.33;7.03;;;;;;;4.60;92.92;100964.47;4993693;28;20034;-72
2022/01/31 10:27:29;;;;;;;42.33;6.72;;;;;;;4.62;92.39;100993.91;4993399;28;20487;-73
2022/01/31 10:30:19;;;;;;;41.95;6.18;;;;;;;4.64;91.18;100981.63;4993411;28;20402;-73
2022/01/31 10:32:48;;;;;;;47.10;6.82;;;;;;;4.64;90.91;100985.09;5013230;28;20046;-73
2022/01/31 10:35:18;;;;;;;39.38;5.53;;;;;;;4.64;89.92;100998.13;4999851;28;20032;-73
2022/01/31 10:37:44;;;;;;;37.88;6.80;;;;;;;4.66;90.31;100995.44;4997806;28;22054;-72
2022/01/31 10:54:38;;;;;;;40.70;6.57;;;;;;;4.77;87.03;101013.16;5003724;28;20041;-73
2022/01/31 10:56:42;;;;;;;40.38;6.45;;;;;;;4.78;87.40;101031.34;5006707;28;20531;-72
2022/01/31 10:59:13;;;;;;;39.33;5.95;;;;;;;4.77;87.88;101039.22;5003605;28;20026;-72
2022/01/31 11:01:48;;;;;;;45.97;6.78;;;;;;;4.76;89.39;101041.00;5005417;28;20688;-72
2022/01/31 11:04:15;;;;;;;34.63;6.63;;;;;;;4.74;89.01;101035.00;5004996;28;20033;-73
2022/01/31 11:06:42;;;;;;;40.28;5.80;;;;;;;4.75;88.97;101033.25;5015327;28;20095;-72
2022/01/31 11:09:11;;;;;;;40.67;5.93;;;;;;;4.72;88.34;101024.66;5005132;28;20033;-72
2022/01/31 11:11:38;;;;;;;40.42;5.85;;;;;;;4.72;89.37;101031.63;5005555;28;20034;-72
2022/01/31 11:14:05;;;;;;;47.97;6.32;;;;;;;4.71;90.04;101029.94;5002621;28;20025;-75
2022/01/31 11:16:31;;;;;;;43.50;6.53;;;;;;;4.71;90.24;101037.75;5008068;28;20393;-75
2022/01/31 11:19:02;;;;;;;46.53;6.93;;;;;;;4.71;90.33;101045.59;5004983;28;20032;-72
2022/01/31 11:21:30;;;;;;;38.83;6.38;;;;;;;4.73;89.42;101046.34;5000145;28;20553;-72
2022/01/31 11:24:02;;;;;;;45.65;7.28;;;;;;;4.74;89.99;101048.03;5003501;28;20386;-72
2022/01/31 11:26:35;;;;;;;42.73;6.70;;;;;;;4.74;90.36;101063.69;5001864;28;20117;-72
2022/01/31 11:29:01;;;;;;;44.97;5.95;;;;;;;4.74;90.16;101050.66;5004717;28;20311;-73
2022/01/31 11:31:28;;;;;;;43.58;6.05;;;;;;;4.75;90.96;101060.16;5000796;28;20034;-72
2022/01/31 11:33:56;;;;;;;45.78;6.78;;;;;;;4.76;90.17;101063.59;5004351;28;20473;-72
2022/01/31 11:36:22;;;;;;;40.95;6.15;;;;;;;4.77;90.27;101075.72;5004004;28;20029;-72
2022/01/31 11:38:48;;;;;;;44.63;6.70;;;;;;;4.77;90.38;101094.81;4999881;28;20445;-73
2022/01/31 11:41:16;;;;;;;42.42;6.07;;;;;;;4.75;90.00;101031.50;5001576;28;20529;-71
2022/01/31 11:43:42;;;;;;;39.00;6.47;;;;;;;4.75;90.00;101083.63;5003302;28;20087;-72
2022/01/31 11:46:08;;;;;;;41.05;6.40;;;;;;;4.73;90.04;101081.06;5001136;28;20018;-72
2022/01/31 11:48:33;;;;;;;46.45;6.55;;;;;;;4.73;90.58;101054.16;5001626;28;20063;-72
2022/01/31 11:51:01;;;;;;;43.42;6.38;;;;;;;4.73;90.55;101054.16;5001655;28;20022;-72